createdAt,value
2019-04-07T00:00:52.359Z,12.96
2019-04-07T00:01:52.655Z,12.95
2019-04-07T00:02:52.343Z,12.91
2019-04-07T00:03:53.195Z,12.91
2019-04-07T00:04:52.335Z,12.91
2019-04-07T00:05:52.343Z,12.85
2019-04-07T00:06:52.316Z,12.87
2019-04-07T00:07:52.312Z,12.88
2019-04-07T00:08:52.306Z,12.89
2019-04-07T00:09:52.576Z,12.88
2019-04-07T00:10:52.743Z,12.91
2019-04-07T00:11:52.283Z,12.88
2019-04-07T00:12:52.280Z,12.87
2019-04-07T00:13:52.269Z,12.84
2019-04-07T00:14:52.260Z,12.94
2019-04-07T00:15:52.254Z,12.91
2019-04-07T00:16:52.246Z,12.88
2019-04-07T00:17:52.240Z,12.89
2019-04-07T00:18:52.233Z,12.88
2019-04-07T00:19:52.228Z,12.84
2019-04-07T00:20:52.867Z,12.88
2019-04-07T00:21:52.218Z,12.92
2019-04-07T00:22:52.332Z,12.92
2019-04-07T00:23:52.203Z,12.91
2019-04-07T00:24:52.201Z,12.94
2019-04-07T00:25:52.193Z,12.89
2019-04-07T00:26:52.448Z,12.92
2019-04-07T00:27:52.175Z,12.89
2019-04-07T00:28:52.166Z,12.96
2019-04-07T00:29:52.159Z,12.91
2019-04-07T00:30:52.157Z,12.94
2019-04-07T00:31:52.314Z,12.91
2019-04-07T00:32:52.145Z,12.87
2019-04-07T00:33:52.138Z,12.88
2019-04-07T00:34:52.126Z,12.87
2019-04-07T00:35:52.121Z,12.87
2019-04-07T00:36:52.225Z,12.88
2019-04-07T00:37:52.110Z,12.77
2019-04-07T00:38:52.106Z,12.87
2019-04-07T00:39:52.100Z,12.89
2019-04-07T00:40:52.499Z,12.87
2019-04-07T00:41:52.081Z,12.91
2019-04-07T00:42:52.080Z,12.91
2019-04-07T00:43:52.075Z,12.94
2019-04-07T00:44:52.064Z,12.88
2019-04-07T00:45:52.488Z,12.91
2019-04-07T00:46:52.590Z,12.91
2019-04-07T00:47:52.565Z,12.91
2019-04-07T00:48:52.037Z,12.87
2019-04-07T00:49:52.193Z,12.92
2019-04-07T00:50:52.032Z,12.94
2019-04-07T00:51:52.021Z,12.92
2019-04-07T00:52:52.520Z,12.96
2019-04-07T00:53:52.006Z,12.95
2019-04-07T00:54:52.264Z,12.89
2019-04-07T00:55:51.996Z,12.95
2019-04-07T00:56:51.986Z,12.95
2019-04-07T00:57:51.989Z,12.96
2019-04-07T00:58:52.414Z,12.92
2019-04-07T00:59:51.965Z,12.92
2019-04-07T01:00:52.141Z,12.94
2019-04-07T01:01:52.560Z,12.98
2019-04-07T01:02:51.948Z,12.94
2019-04-07T01:03:51.940Z,12.96
2019-04-07T01:04:51.933Z,13.04
2019-04-07T01:05:52.181Z,12.99
2019-04-07T01:06:51.915Z,12.95
2019-04-07T01:07:51.911Z,13.04
2019-04-07T01:08:52.464Z,13.03
2019-04-07T01:09:51.897Z,12.96
2019-04-07T01:10:52.492Z,13.03
2019-04-07T01:11:52.399Z,12.95
2019-04-07T01:12:52.206Z,12.92
2019-04-07T01:13:51.867Z,12.99
2019-04-07T01:14:52.166Z,12.99
2019-04-07T01:15:51.857Z,12.94
2019-04-07T01:16:51.853Z,12.95
2019-04-07T01:17:52.377Z,13.03
2019-04-07T01:18:52.007Z,12.98
2019-04-07T01:19:51.961Z,12.98
2019-04-07T01:20:51.907Z,12.89
2019-04-07T01:21:51.816Z,12.96
2019-04-07T01:22:51.813Z,12.98
2019-04-07T01:23:51.805Z,12.95
2019-04-07T01:24:51.842Z,12.87
2019-04-07T01:25:52.270Z,12.94
2019-04-07T01:26:51.778Z,12.91
2019-04-07T01:27:51.771Z,12.88
2019-04-07T01:28:54.295Z,12.87
2019-04-07T01:29:51.761Z,12.94
2019-04-07T01:30:51.753Z,12.95
2019-04-07T01:31:51.820Z,12.94
2019-04-07T01:32:52.169Z,12.95
2019-04-07T01:33:52.176Z,12.92
2019-04-07T01:34:51.732Z,12.88
2019-04-07T01:35:51.725Z,12.91
2019-04-07T01:36:51.748Z,12.89
2019-04-07T01:37:51.820Z,12.94
2019-04-07T01:38:52.138Z,12.89
2019-04-07T01:39:51.694Z,12.91
2019-04-07T01:40:51.952Z,12.91
2019-04-07T01:41:51.681Z,12.88
2019-04-07T01:42:52.168Z,12.88
2019-04-07T01:43:51.671Z,12.91
2019-04-07T01:44:51.877Z,12.88
2019-04-07T01:45:51.651Z,12.89
2019-04-07T01:46:52.292Z,12.89
2019-04-07T01:47:52.323Z,12.85
2019-04-07T01:48:52.077Z,12.89
2019-04-07T01:49:52.328Z,12.96
2019-04-07T01:50:51.819Z,12.99
2019-04-07T01:51:51.844Z,13.03
2019-04-07T01:52:51.917Z,12.98
2019-04-07T01:53:51.971Z,12.99
2019-04-07T01:54:51.599Z,13.03
2019-04-07T01:55:52.114Z,13.01
2019-04-07T01:56:51.646Z,13.07
2019-04-07T01:57:51.877Z,13.03
2019-04-07T01:58:51.563Z,13.01
2019-04-07T01:59:51.956Z,13.06
2019-04-07T02:00:52.127Z,12.94
2019-04-07T02:01:51.757Z,12.99
2019-04-07T02:02:52.052Z,12.99
2019-04-07T02:03:51.532Z,13.01
2019-04-07T02:04:52.129Z,12.94
2019-04-07T02:05:58.701Z,12.92
2019-04-07T02:06:51.737Z,13.04
2019-04-07T02:07:51.511Z,12.96
2019-04-07T02:08:51.747Z,12.92
2019-04-07T02:09:52.083Z,12.95
2019-04-07T02:10:51.611Z,12.92
2019-04-07T02:11:51.482Z,12.95
2019-04-07T02:12:52.012Z,12.85
2019-04-07T02:13:51.658Z,12.88
2019-04-07T02:14:52.146Z,12.94
2019-04-07T02:15:51.455Z,12.85
2019-04-07T02:16:51.563Z,12.84
2019-04-07T02:17:51.553Z,12.79
2019-04-07T02:18:51.438Z,12.87
2019-04-07T02:19:51.427Z,12.76
2019-04-07T02:20:51.610Z,12.76
2019-04-07T02:21:51.545Z,12.88
2019-04-07T02:22:52.046Z,12.87
2019-04-07T02:23:51.399Z,12.89
2019-04-07T02:24:51.539Z,12.91
2019-04-07T02:25:51.536Z,12.87
2019-04-07T02:26:51.382Z,12.88
2019-04-07T02:27:51.376Z,12.85
2019-04-07T02:28:51.366Z,12.84
2019-04-07T02:29:51.360Z,12.88
2019-04-07T02:30:52.260Z,12.87
2019-04-07T02:31:52.231Z,12.94
2019-04-07T02:32:52.379Z,12.88
2019-04-07T02:33:52.334Z,12.88
2019-04-07T02:34:51.323Z,12.92
2019-04-07T02:35:52.397Z,12.91
2019-04-07T02:36:51.311Z,12.91
2019-04-07T02:37:51.306Z,12.94
2019-04-07T02:38:51.821Z,12.89
2019-04-07T02:39:51.295Z,12.88
2019-04-07T02:40:51.477Z,12.88
2019-04-07T02:41:51.741Z,12.87
2019-04-07T02:42:51.652Z,12.88
2019-04-07T02:43:51.308Z,12.79
2019-04-07T02:44:51.252Z,12.77
2019-04-07T02:45:51.246Z,12.79
2019-04-07T02:46:51.629Z,12.70
2019-04-07T02:47:51.336Z,12.70
2019-04-07T02:48:51.343Z,12.67
2019-04-07T02:49:51.797Z,12.66
2019-04-07T02:50:51.217Z,12.71
2019-04-07T02:51:51.212Z,12.63
2019-04-07T02:52:51.450Z,12.55
2019-04-07T02:53:51.198Z,12.62
2019-04-07T02:54:51.503Z,12.56
2019-04-07T02:55:51.183Z,12.51
2019-04-07T02:56:52.208Z,12.56
2019-04-07T02:57:51.162Z,12.46
2019-04-07T02:58:51.447Z,12.51
2019-04-07T02:59:51.465Z,12.44
2019-04-07T03:00:52.145Z,12.44
2019-04-07T03:01:51.992Z,12.33
2019-04-07T03:02:51.929Z,12.26
2019-04-07T03:03:51.135Z,12.29
2019-04-07T03:04:51.298Z,12.31
2019-04-07T03:05:51.141Z,12.29
2019-04-07T03:06:53.404Z,12.23
2019-04-07T03:07:51.096Z,12.23
2019-04-07T03:08:51.086Z,12.18
2019-04-07T03:09:51.686Z,12.29
2019-04-07T03:10:51.425Z,12.23
2019-04-07T03:11:51.073Z,12.21
2019-04-07T03:12:51.281Z,12.12
2019-04-07T03:13:52.083Z,12.11
2019-04-07T03:14:52.932Z,12.13
2019-04-07T03:15:51.040Z,12.03
2019-04-07T03:16:51.547Z,11.97
2019-04-07T03:17:51.970Z,12.12
2019-04-07T03:18:51.021Z,12.05
2019-04-07T03:19:52.039Z,12.07
2019-04-07T03:20:51.520Z,12.04
2019-04-07T03:21:50.997Z,11.90
2019-04-07T03:22:50.992Z,11.98
2019-04-07T03:23:51.427Z,11.98
2019-04-07T03:24:51.666Z,11.97
2019-04-07T03:25:51.023Z,11.94
2019-04-07T03:26:51.420Z,11.90
2019-04-07T03:27:51.545Z,11.94
2019-04-07T03:28:51.417Z,11.97
2019-04-07T03:29:50.931Z,11.87
2019-04-07T03:30:51.928Z,11.84
2019-04-07T03:31:51.553Z,11.84
2019-04-07T03:32:53.436Z,11.79
2019-04-07T03:33:52.206Z,11.70
2019-04-07T03:34:52.123Z,11.72
2019-04-07T03:35:53.333Z,11.70
2019-04-07T03:37:14.949Z,11.74
2019-04-07T03:37:51.522Z,11.62
2019-04-07T03:38:50.872Z,11.59
2019-04-07T03:39:51.267Z,11.62
2019-04-07T03:40:51.585Z,11.59
2019-04-07T03:41:52.029Z,11.54
2019-04-07T03:42:51.157Z,11.51
2019-04-07T03:43:51.014Z,11.51
2019-04-07T03:44:51.078Z,11.45
2019-04-07T03:45:51.876Z,11.48
2019-04-07T03:46:50.896Z,11.45
2019-04-07T03:47:50.800Z,11.42
2019-04-07T03:48:50.908Z,11.41
2019-04-07T03:49:51.004Z,11.36
2019-04-07T03:50:50.929Z,11.33
2019-04-07T03:51:51.508Z,11.35
2019-04-07T03:52:51.128Z,11.33
2019-04-07T03:53:51.958Z,11.33
2019-04-07T03:54:50.907Z,11.36
2019-04-07T03:55:51.312Z,11.30
2019-04-07T03:56:51.701Z,11.27
2019-04-07T03:57:50.773Z,11.19
2019-04-07T03:58:50.831Z,11.21
2019-04-07T03:59:51.360Z,11.19
2019-04-07T04:00:50.705Z,11.24
2019-04-07T04:01:51.652Z,11.16
2019-04-07T04:02:50.695Z,11.11
2019-04-07T04:03:51.420Z,11.13
2019-04-07T04:04:51.480Z,11.13
2019-04-07T04:05:52.505Z,11.11
2019-04-07T04:06:51.503Z,11.12
2019-04-07T04:07:50.662Z,11.08
2019-04-07T04:08:50.967Z,11.11
2019-04-07T04:09:51.624Z,11.03
2019-04-07T04:10:51.637Z,11.02
2019-04-07T04:11:51.550Z,11.02
2019-04-07T04:12:51.236Z,11.02
2019-04-07T04:13:51.005Z,11.03
2019-04-07T04:14:50.874Z,10.99
2019-04-07T04:15:51.567Z,10.99
2019-04-07T04:16:50.969Z,10.95
2019-04-07T04:17:51.288Z,11.01
2019-04-07T04:18:50.566Z,10.93
2019-04-07T04:19:50.976Z,10.90
2019-04-07T04:20:50.546Z,10.94
2019-04-07T04:21:51.178Z,10.93
2019-04-07T04:22:50.723Z,10.94
2019-04-07T04:23:50.533Z,10.93
2019-04-07T04:24:50.548Z,10.95
2019-04-07T04:25:50.506Z,10.90
2019-04-07T04:26:51.748Z,10.88
2019-04-07T04:27:50.873Z,10.84
2019-04-07T04:28:50.751Z,10.81
2019-04-07T04:29:51.898Z,10.76
2019-04-07T04:30:50.783Z,10.93
2019-04-07T04:31:50.688Z,10.80
2019-04-07T04:32:50.456Z,10.76
2019-04-07T04:33:51.666Z,10.81
2019-04-07T04:34:50.487Z,10.80
2019-04-07T04:35:50.445Z,10.81
2019-04-07T04:36:50.431Z,10.83
2019-04-07T04:37:53.395Z,10.80
2019-04-07T04:38:52.378Z,10.65
2019-04-07T04:39:51.167Z,10.72
2019-04-07T04:40:50.665Z,10.69
2019-04-07T04:41:50.871Z,10.66
2019-04-07T04:42:50.591Z,10.68
2019-04-07T04:43:50.436Z,10.66
2019-04-07T04:44:50.996Z,10.66
2019-04-07T04:45:50.574Z,10.72
2019-04-07T04:46:50.346Z,10.62
2019-04-07T04:47:50.339Z,10.58
2019-04-07T04:48:51.162Z,10.62
2019-04-07T04:49:50.386Z,10.65
2019-04-07T04:50:50.469Z,10.47
2019-04-07T04:51:50.313Z,10.62
2019-04-07T04:52:50.294Z,10.52
2019-04-07T04:53:50.467Z,10.46
2019-04-07T04:54:50.283Z,10.49
2019-04-07T04:55:50.272Z,10.39
2019-04-07T04:56:50.416Z,10.46
2019-04-07T04:57:51.165Z,10.44
2019-04-07T04:58:50.713Z,10.43
2019-04-07T04:59:50.699Z,10.44
2019-04-07T05:00:50.729Z,10.43
2019-04-07T05:01:51.086Z,10.47
2019-04-07T05:02:50.214Z,10.46
2019-04-07T05:03:50.693Z,10.46
2019-04-07T05:04:50.195Z,10.57
2019-04-07T05:05:50.186Z,10.54
2019-04-07T05:06:50.183Z,10.58
2019-04-07T05:07:58.940Z,10.57
2019-04-07T05:08:51.081Z,10.55
2019-04-07T05:09:53.843Z,10.58
2019-04-07T05:10:50.307Z,10.55
2019-04-07T05:11:50.592Z,10.55
2019-04-07T05:12:50.380Z,10.68
2019-04-07T05:13:50.191Z,10.66
2019-04-07T05:14:50.335Z,10.58
2019-04-07T05:15:50.223Z,10.62
2019-04-07T05:16:50.404Z,10.58
2019-04-07T05:17:50.379Z,10.57
2019-04-07T05:18:50.085Z,10.63
2019-04-07T05:19:50.074Z,10.68
2019-04-07T05:20:50.066Z,10.63
2019-04-07T05:21:50.463Z,10.69
2019-04-07T05:22:50.050Z,10.69
2019-04-07T05:23:50.181Z,10.91
2019-04-07T05:24:50.508Z,10.91
2019-04-07T05:25:50.434Z,10.93
2019-04-07T05:26:50.021Z,11.08
2019-04-07T05:27:50.380Z,11.08
2019-04-07T05:28:50.472Z,11.19
2019-04-07T05:29:49.992Z,11.35
2019-04-07T05:30:50.154Z,11.49
2019-04-07T05:31:50.326Z,11.67
2019-04-07T05:32:49.973Z,11.94
2019-04-07T05:33:49.968Z,12.21
2019-04-07T05:34:50.540Z,12.52
2019-04-07T05:35:50.434Z,12.73
2019-04-07T05:36:49.936Z,12.95
2019-04-07T05:37:59.903Z,13.12
2019-04-07T05:38:49.989Z,13.31
2019-04-07T05:39:49.946Z,13.65
2019-04-07T05:40:50.084Z,13.94
2019-04-07T05:41:49.905Z,14.17
2019-04-07T05:42:49.895Z,14.49
2019-04-07T05:43:50.286Z,14.64
2019-04-07T05:44:50.493Z,14.94
2019-04-07T05:45:50.045Z,15.18
2019-04-07T05:46:49.949Z,15.48
2019-04-07T05:47:50.778Z,15.59
2019-04-07T05:48:51.140Z,15.76
2019-04-07T05:49:49.967Z,16.04
2019-04-07T05:50:50.465Z,16.27
2019-04-07T05:51:50.107Z,16.48
2019-04-07T05:52:49.994Z,16.75
2019-04-07T05:53:49.867Z,16.88
2019-04-07T05:54:51.408Z,17.02
2019-04-07T05:55:52.111Z,17.21
2019-04-07T05:56:50.249Z,17.43
2019-04-07T05:57:49.804Z,17.58
2019-04-07T05:58:49.999Z,17.79
2019-04-07T05:59:50.383Z,17.99
2019-04-07T06:00:50.208Z,18.21
2019-04-07T06:01:51.595Z,18.32
2019-04-07T06:02:50.689Z,18.53
2019-04-07T06:03:49.782Z,18.57
2019-04-07T06:04:49.779Z,18.69
2019-04-07T06:05:51.079Z,18.72
2019-04-07T06:06:52.844Z,18.86
2019-04-07T06:07:50.466Z,18.90
2019-04-07T06:08:49.784Z,19.06
2019-04-07T06:09:51.233Z,19.38
2019-04-07T06:10:50.065Z,19.58
2019-04-07T06:11:49.860Z,19.82
2019-04-07T06:12:49.751Z,20.07
2019-04-07T06:13:50.415Z,20.22
2019-04-07T06:14:49.856Z,20.54
2019-04-07T06:15:51.374Z,20.58
2019-04-07T06:16:53.569Z,20.78
2019-04-07T06:17:50.090Z,21.05
2019-04-07T06:18:50.132Z,21.18
2019-04-07T06:19:51.620Z,21.37
2019-04-07T06:20:50.484Z,21.56
2019-04-07T06:21:49.943Z,21.58
2019-04-07T06:22:52.833Z,21.83
2019-04-07T06:23:49.727Z,22.02
2019-04-07T06:24:50.238Z,22.24
2019-04-07T06:25:50.107Z,22.42
2019-04-07T06:26:50.371Z,22.60
2019-04-07T06:27:50.099Z,22.66
2019-04-07T06:28:54.067Z,22.67
2019-04-07T06:29:50.114Z,22.79
2019-04-07T06:30:49.725Z,22.97
2019-04-07T06:31:49.843Z,22.97
2019-04-07T06:32:50.510Z,23.15
2019-04-07T06:33:49.912Z,23.18
2019-04-07T06:34:50.622Z,23.19
2019-04-07T06:35:49.941Z,23.26
2019-04-07T06:36:53.624Z,23.42
2019-04-07T06:37:49.724Z,23.41
2019-04-07T06:38:52.350Z,23.54
2019-04-07T06:39:51.568Z,23.54
2019-04-07T06:40:52.769Z,23.54
2019-04-07T06:41:49.723Z,23.52
2019-04-07T06:42:49.929Z,23.74
2019-04-07T06:43:49.762Z,23.99
2019-04-07T06:44:51.081Z,24.23
2019-04-07T06:45:52.789Z,24.49
2019-04-07T06:46:49.725Z,24.61
2019-04-07T06:47:49.826Z,24.93
2019-04-07T06:48:50.467Z,25.12
2019-04-07T06:49:49.731Z,25.42
2019-04-07T06:50:56.661Z,25.63
2019-04-07T06:51:50.096Z,25.71
2019-04-07T06:52:49.737Z,25.86
2019-04-07T06:53:50.447Z,26.21
2019-04-07T06:54:53.487Z,26.42
2019-04-07T06:55:49.749Z,26.69
2019-04-07T06:56:50.006Z,26.83
2019-04-07T06:57:49.752Z,26.94
2019-04-07T06:58:50.414Z,27.18
2019-04-07T06:59:50.161Z,27.33
2019-04-07T07:00:53.592Z,27.68
2019-04-07T07:01:50.224Z,27.50
2019-04-07T07:02:49.977Z,27.35
2019-04-07T07:03:49.771Z,27.27
2019-04-07T07:04:49.801Z,27.38
2019-04-07T07:05:50.374Z,27.45
2019-04-07T07:06:50.248Z,27.55
2019-04-07T07:07:49.894Z,27.78
2019-04-07T07:08:52.888Z,27.83
2019-04-07T07:09:50.244Z,27.62
2019-04-07T07:10:50.794Z,27.49
2019-04-07T07:11:49.801Z,27.08
2019-04-07T07:12:49.805Z,26.41
2019-04-07T07:13:49.964Z,25.86
2019-04-07T07:14:49.820Z,25.85
2019-04-07T07:15:49.847Z,25.79
2019-04-07T07:16:49.994Z,25.41
2019-04-07T07:17:51.060Z,25.51
2019-04-07T07:18:51.762Z,25.29
2019-04-07T07:19:49.901Z,25.05
2019-04-07T07:20:50.516Z,24.74
2019-04-07T07:21:50.141Z,24.37
2019-04-07T07:22:50.707Z,24.18
2019-04-07T07:23:50.062Z,24.21
2019-04-07T07:24:50.302Z,24.63
2019-04-07T07:25:50.634Z,25.14
2019-04-07T07:26:50.377Z,25.53
2019-04-07T07:27:49.878Z,25.82
2019-04-07T07:28:49.884Z,25.93
2019-04-07T07:29:52.827Z,26.24
2019-04-07T07:30:52.477Z,25.69
2019-04-07T07:31:52.235Z,25.98
2019-04-07T07:32:50.581Z,25.96
2019-04-07T07:33:49.965Z,26.32
2019-04-07T07:34:49.915Z,26.08
2019-04-07T07:35:50.623Z,26.68
2019-04-07T07:36:53.444Z,27.15
2019-04-07T07:37:50.026Z,27.71
2019-04-07T07:38:59.064Z,28.15
2019-04-07T07:39:50.770Z,28.48
2019-04-07T07:40:50.142Z,28.80
2019-04-07T07:41:51.723Z,28.88
2019-04-07T07:42:51.014Z,28.69
2019-04-07T07:43:49.958Z,27.71
2019-04-07T07:44:50.375Z,27.01
2019-04-07T07:45:50.160Z,27.16
2019-04-07T07:46:51.522Z,27.81
2019-04-07T07:47:53.774Z,27.98
2019-04-07T07:48:50.091Z,27.61
2019-04-07T07:49:50.836Z,27.98
2019-04-07T07:50:50.167Z,28.48
2019-04-07T07:51:50.577Z,28.88
2019-04-07T07:52:53.199Z,28.51
2019-04-07T07:53:50.528Z,28.54
2019-04-07T07:54:50.798Z,28.74
2019-04-07T07:55:50.037Z,28.87
2019-04-07T07:56:51.205Z,28.32
2019-04-07T07:57:54.158Z,28.18
2019-04-07T07:58:50.476Z,28.74
2019-04-07T07:59:50.878Z,29.07
2019-04-07T08:00:50.635Z,29.70
2019-04-07T08:01:51.398Z,30.21
2019-04-07T08:02:52.473Z,30.25
2019-04-07T08:03:53.049Z,29.20
2019-04-07T08:04:50.102Z,28.73
2019-04-07T08:05:50.108Z,29.25
2019-04-07T08:06:50.224Z,29.69
2019-04-07T08:07:51.043Z,30.40
2019-04-07T08:08:50.145Z,30.83
2019-04-07T08:09:53.897Z,31.27
2019-04-07T08:10:50.755Z,31.20
2019-04-07T08:11:50.252Z,31.10
2019-04-07T08:12:50.868Z,30.93
2019-04-07T08:13:50.296Z,31.47
2019-04-07T08:14:53.981Z,31.53
2019-04-07T08:15:50.387Z,30.37
2019-04-07T08:16:50.201Z,29.81
2019-04-07T08:17:50.862Z,30.21
2019-04-07T08:18:50.989Z,30.79
2019-04-07T08:19:50.296Z,31.01
2019-04-07T08:20:50.238Z,30.57
2019-04-07T08:21:51.846Z,30.26
2019-04-07T08:22:50.445Z,28.95
2019-04-07T08:23:50.269Z,28.62
2019-04-07T08:24:51.895Z,29.23
2019-04-07T08:25:52.920Z,29.81
2019-04-07T08:26:50.382Z,30.26
2019-04-07T08:27:50.297Z,30.59
2019-04-07T08:28:50.325Z,30.63
2019-04-07T08:29:51.022Z,31.00
2019-04-07T08:30:51.137Z,31.78
2019-04-07T08:31:52.632Z,32.44
2019-04-07T08:32:50.386Z,33.12
2019-04-07T08:33:51.596Z,33.72
2019-04-07T08:34:50.554Z,34.01
2019-04-07T08:35:51.100Z,34.19
2019-04-07T08:36:50.385Z,34.91
2019-04-07T08:37:50.524Z,34.95
2019-04-07T08:38:53.956Z,35.15
2019-04-07T08:39:50.815Z,35.22
2019-04-07T08:40:52.896Z,35.55
2019-04-07T08:41:50.707Z,35.92
2019-04-07T08:42:50.988Z,36.25
2019-04-07T08:43:53.217Z,36.49
2019-04-07T08:44:50.856Z,36.62
2019-04-07T08:45:50.495Z,36.90
2019-04-07T08:46:50.825Z,37.18
2019-04-07T08:47:51.743Z,37.46
2019-04-07T08:48:53.193Z,37.66
2019-04-07T08:49:50.687Z,37.70
2019-04-07T08:50:50.554Z,38.09
2019-04-07T08:51:50.635Z,38.03
2019-04-07T08:52:51.029Z,38.33
2019-04-07T08:53:50.597Z,37.95
2019-04-07T08:54:52.677Z,38.06
2019-04-07T08:55:54.413Z,38.44
2019-04-07T08:56:50.631Z,38.84
2019-04-07T08:57:50.643Z,39.10
2019-04-07T08:58:51.076Z,39.46
2019-04-07T08:59:51.390Z,39.70
2019-04-07T09:00:52.641Z,39.73
2019-04-07T09:01:53.465Z,39.75
2019-04-07T09:03:01.648Z,39.13
2019-04-07T09:03:50.794Z,35.77
2019-04-07T09:04:52.310Z,33.62
2019-04-07T09:05:51.423Z,33.11
2019-04-07T09:06:50.775Z,32.58
2019-04-07T09:07:50.785Z,32.95
2019-04-07T09:08:51.052Z,32.80
2019-04-07T09:09:51.424Z,33.00
2019-04-07T09:10:50.986Z,32.28
2019-04-07T09:11:53.934Z,31.68
2019-04-07T09:12:51.055Z,31.67
2019-04-07T09:13:50.863Z,32.44
2019-04-07T09:14:51.393Z,32.93
2019-04-07T09:15:50.896Z,33.12
2019-04-07T09:16:54.239Z,33.03
2019-04-07T09:17:50.924Z,33.45
2019-04-07T09:18:55.008Z,33.05
2019-04-07T09:19:53.768Z,31.67
2019-04-07T09:20:51.790Z,30.90
2019-04-07T09:21:52.029Z,30.79
2019-04-07T09:22:53.273Z,31.13
2019-04-07T09:23:51.003Z,30.98
2019-04-07T09:24:51.019Z,29.74
2019-04-07T09:25:51.212Z,30.11
2019-04-07T09:26:51.126Z,30.45
2019-04-07T09:27:51.943Z,31.04
2019-04-07T09:28:53.437Z,31.62
2019-04-07T09:29:51.274Z,31.10
2019-04-07T09:30:51.093Z,28.97
2019-04-07T09:31:51.823Z,28.67
2019-04-07T09:32:51.171Z,29.57
2019-04-07T09:33:51.748Z,30.11
2019-04-07T09:34:53.070Z,29.92
2019-04-07T09:35:52.061Z,29.81
2019-04-07T09:36:51.409Z,30.75
2019-04-07T09:37:53.293Z,31.84
2019-04-07T09:38:51.344Z,32.88
2019-04-07T09:39:58.463Z,32.44
2019-04-07T09:40:51.641Z,32.85
2019-04-07T09:41:54.721Z,32.66
2019-04-07T09:42:51.883Z,30.13
2019-04-07T09:43:51.801Z,28.72
2019-04-07T09:44:51.660Z,28.76
2019-04-07T09:45:51.853Z,29.64
2019-04-07T09:46:51.509Z,30.66
2019-04-07T09:47:51.304Z,31.57
2019-04-07T09:48:52.725Z,32.34
2019-04-07T09:49:56.204Z,33.09
2019-04-07T09:50:52.185Z,32.95
2019-04-07T09:51:51.799Z,32.25
2019-04-07T09:52:51.358Z,31.13
2019-04-07T09:53:52.146Z,30.08
2019-04-07T09:54:53.804Z,28.60
2019-04-07T09:55:51.602Z,27.87
2019-04-07T09:56:51.846Z,28.14
2019-04-07T09:57:51.428Z,28.87
2019-04-07T09:58:51.533Z,28.72
2019-04-07T09:59:53.588Z,28.79
2019-04-07T10:00:55.577Z,28.80
2019-04-07T10:01:51.820Z,28.45
2019-04-07T10:02:51.636Z,28.50
2019-04-07T10:03:51.495Z,28.67
2019-04-07T10:04:51.503Z,28.36
2019-04-07T10:05:51.561Z,29.11
2019-04-07T10:06:51.533Z,29.32
2019-04-07T10:07:51.863Z,29.36
2019-04-07T10:08:52.223Z,29.92
2019-04-07T10:10:03.579Z,29.92
2019-04-07T10:10:51.570Z,28.92
2019-04-07T10:11:51.901Z,29.54
2019-04-07T10:12:51.595Z,29.05
2019-04-07T10:13:51.618Z,29.14
2019-04-07T10:14:51.621Z,28.52
2019-04-07T10:15:51.632Z,28.74
2019-04-07T10:16:51.771Z,29.51
2019-04-07T10:17:51.854Z,30.13
2019-04-07T10:18:52.161Z,29.42
2019-04-07T10:19:51.675Z,28.83
2019-04-07T10:20:51.750Z,28.73
2019-04-07T10:21:51.693Z,28.23
2019-04-07T10:22:51.699Z,27.62
2019-04-07T10:23:51.710Z,27.87
2019-04-07T10:24:51.836Z,27.84
2019-04-07T10:25:51.821Z,28.20
2019-04-07T10:26:52.025Z,28.51
2019-04-07T10:27:51.972Z,28.77
2019-04-07T10:28:51.831Z,29.42
2019-04-07T10:29:52.451Z,28.77
2019-04-07T10:30:51.847Z,28.97
2019-04-07T10:31:51.925Z,29.32
2019-04-07T10:32:52.060Z,29.88
2019-04-07T10:33:52.606Z,29.08
2019-04-07T10:34:51.826Z,28.69
2019-04-07T10:35:52.501Z,28.48
2019-04-07T10:36:51.843Z,28.60
2019-04-07T10:37:52.467Z,28.55
2019-04-07T10:38:51.868Z,27.08
2019-04-07T10:39:52.625Z,26.54
2019-04-07T10:40:51.889Z,26.71
2019-04-07T10:41:51.897Z,27.21
2019-04-07T10:42:54.447Z,27.91
2019-04-07T10:43:52.597Z,28.21
2019-04-07T10:44:52.160Z,28.18
2019-04-07T10:45:51.963Z,28.01
2019-04-07T10:46:51.947Z,28.87
2019-04-07T10:47:52.354Z,28.58
2019-04-07T10:48:51.961Z,28.79
2019-04-07T10:49:59.916Z,27.50
2019-04-07T10:50:51.990Z,27.20
2019-04-07T10:51:52.239Z,27.50
2019-04-07T10:52:52.006Z,27.81
2019-04-07T10:53:52.655Z,28.23
2019-04-07T10:54:52.011Z,28.45
2019-04-07T10:55:52.199Z,28.48
2019-04-07T10:56:52.030Z,28.48
2019-04-07T10:57:52.418Z,28.48
2019-04-07T10:58:52.765Z,27.83
2019-04-07T10:59:52.062Z,27.69
2019-04-07T11:00:52.647Z,27.74
2019-04-07T11:01:52.082Z,27.34
2019-04-07T11:02:55.435Z,27.38
2019-04-07T11:03:53.962Z,26.76
2019-04-07T11:04:52.816Z,26.75
2019-04-07T11:05:52.118Z,26.71
2019-04-07T11:06:52.123Z,26.83
2019-04-07T11:07:52.135Z,26.93
2019-04-07T11:08:52.147Z,27.31
2019-04-07T11:09:52.148Z,27.38
2019-04-07T11:10:52.161Z,27.53
2019-04-07T11:11:52.367Z,27.78
2019-04-07T11:12:52.502Z,27.52
2019-04-07T11:13:52.185Z,27.66
2019-04-07T11:14:52.188Z,28.15
2019-04-07T11:15:52.715Z,27.81
2019-04-07T11:16:52.535Z,27.65
2019-04-07T11:17:52.760Z,27.84
2019-04-07T11:18:52.990Z,27.81
2019-04-07T11:19:52.495Z,27.59
2019-04-07T11:20:52.243Z,27.05
2019-04-07T11:21:52.976Z,26.21
2019-04-07T11:22:52.945Z,25.89
2019-04-07T11:23:52.346Z,25.66
2019-04-07T11:24:52.744Z,25.79
2019-04-07T11:25:52.287Z,25.56
2019-04-07T11:26:52.723Z,25.66
2019-04-07T11:27:52.818Z,25.63
2019-04-07T11:28:52.523Z,25.34
2019-04-07T11:29:52.835Z,24.77
2019-04-07T11:30:52.328Z,24.34
2019-04-07T11:31:53.269Z,24.15
2019-04-07T11:32:52.338Z,23.81
2019-04-07T11:33:52.543Z,23.67
2019-04-07T11:34:53.009Z,23.67
2019-04-07T11:35:53.191Z,23.93
2019-04-07T11:36:52.853Z,23.67
2019-04-07T11:37:52.850Z,23.56
2019-04-07T11:38:52.770Z,23.50
2019-04-07T11:39:52.382Z,23.54
2019-04-07T11:40:52.507Z,23.32
2019-04-07T11:41:52.739Z,23.53
2019-04-07T11:42:52.632Z,23.84
2019-04-07T11:43:53.288Z,23.86
2019-04-07T11:44:53.056Z,24.02
2019-04-07T11:45:59.071Z,23.90
2019-04-07T11:46:53.007Z,23.93
2019-04-07T11:47:52.611Z,23.90
2019-04-07T11:48:52.409Z,23.67
2019-04-07T11:49:52.419Z,23.89
2019-04-07T11:50:52.417Z,24.04
2019-04-07T11:51:52.449Z,24.11
2019-04-07T11:52:52.701Z,24.15
2019-04-07T11:53:52.417Z,23.86
2019-04-07T11:54:52.999Z,23.57
2019-04-07T11:55:53.165Z,23.54
2019-04-07T11:56:52.435Z,23.60
2019-04-07T11:58:07.409Z,23.75
2019-04-07T11:58:53.081Z,23.71
2019-04-07T11:59:52.451Z,23.71
2019-04-07T12:00:52.670Z,23.50
2019-04-07T12:01:53.066Z,23.59
2019-04-07T12:02:53.628Z,23.54
2019-04-07T12:03:53.906Z,23.31
2019-04-07T12:04:53.236Z,23.03
2019-04-07T12:05:52.450Z,23.03
2019-04-07T12:06:52.616Z,23.14
2019-04-07T12:07:55.804Z,23.11
2019-04-07T12:08:52.457Z,23.21
2019-04-07T12:09:52.459Z,23.34
2019-04-07T12:10:58.444Z,23.49
2019-04-07T12:11:52.663Z,23.35
2019-04-07T12:12:52.733Z,23.39
2019-04-07T12:13:52.631Z,23.62
2019-04-07T12:14:54.556Z,23.54
2019-04-07T12:15:55.260Z,23.53
2019-04-07T12:16:53.330Z,23.38
2019-04-07T12:17:52.474Z,23.07
2019-04-07T12:18:53.688Z,22.78
2019-04-07T12:19:55.103Z,22.81
2019-04-07T12:20:52.924Z,22.84
2019-04-07T12:21:52.474Z,22.94
2019-04-07T12:22:52.831Z,22.97
2019-04-07T12:23:54.215Z,22.76
2019-04-07T12:24:54.350Z,22.61
2019-04-07T12:25:52.729Z,22.57
2019-04-07T12:26:52.489Z,22.67
2019-04-07T12:27:52.486Z,22.82
2019-04-07T12:28:52.528Z,22.86
2019-04-07T12:29:52.493Z,22.86
2019-04-07T12:30:52.968Z,22.61
2019-04-07T12:31:53.221Z,22.64
2019-04-07T12:32:52.593Z,22.64
2019-04-07T12:33:52.788Z,22.61
2019-04-07T12:34:52.492Z,22.61
2019-04-07T12:35:55.142Z,22.81
2019-04-07T12:36:53.011Z,22.88
2019-04-07T12:37:53.118Z,22.94
2019-04-07T12:38:52.496Z,22.88
2019-04-07T12:39:53.332Z,22.70
2019-04-07T12:40:54.848Z,22.66
2019-04-07T12:41:54.963Z,22.57
2019-04-07T12:42:52.700Z,22.72
2019-04-07T12:43:52.502Z,22.70
2019-04-07T12:44:52.810Z,22.60
2019-04-07T12:45:52.638Z,22.60
2019-04-07T12:46:52.953Z,22.45
2019-04-07T12:47:52.825Z,22.38
2019-04-07T12:48:53.229Z,22.36
2019-04-07T12:49:53.173Z,22.26
2019-04-07T12:50:52.505Z,22.20
2019-04-07T12:51:55.881Z,22.23
2019-04-07T12:52:52.984Z,22.21